KPRO

Details ICAO KPRO
Name PERRY MUNI
Region United States
Timezone America/Chicago (UTC-5.0)
Plans Departing 0
Arriving 2
Stats Elevation 1,014 ft / 309 m (AMSL)
Location 41.827929° -94.159588°
Runways 2
Magnetic Variation 1.156° E
Sunrise 2018-05-23 10:51:03 UTC / 2018-05-23 05:51:03 Local
Sunset 2018-05-24 01:38:38 UTC / 2018-05-23 20:38:38 Local
Advertisement - Login to hide

Runways

ID Width Length Bearing (true) Bearing (mag) Surface Threshold Offset Overrun Length
04 235 ft / 72 m 2,120 ft / 646 m 51.60° 50.44° Grass 0 ft / 0 m 0 ft / 0 m
14 75 ft / 23 m 4,000 ft / 1,219 m 140.78° 139.62° Concrete 0 ft / 0 m 0 ft / 0 m
22 235 ft / 72 m 2,120 ft / 646 m 231.60° 230.44° Grass 0 ft / 0 m 0 ft / 0 m
32 75 ft / 23 m 4,000 ft / 1,219 m 320.79° 319.63° Concrete 0 ft / 0 m 0 ft / 0 m

Map

Weather


0- 5 10 15 20 25 30 35+ Temperature / ° C

Clouds and Precipitation
Forecast for 2018-05-23 18:00 UTC. Updated 6 hours ago

Ground ~20,000 ft ~40,000 ft Winds

METAR

KPRO 232255Z AUTO 16013G18KT 10SM SCT060 31/14 A3003 RMK AO2 T03100140

TAF

Not found

Frequencies

Unicom 122.80 MHz CTAF/UNICOM
Approach 135.20 MHz DES MOINES APP/DEP
Warning: Do not use this data for real-world aviation or navigation. No guarantee of current accuracy is given.